Time;durP1;ratioP1;P1;durP2;ratioP2;P2;SDS_P1;SDS_P2;PMS_P1;PMS_P2;Temp;Humidity;BMP_temperature;BMP_pressure;BME280_temperature;BME280_humidity;BME280_pressure;Samples;Min_cycle;Max_cycle;Signal;HPM_P1;HPM_P2
2021/09/26 00:01:18;;;;;;;17.35;10.90;;;;;;;16.22;100.00;96369.22;5016537;28;20132;-72
2021/09/26 00:03:49;;;;;;;19.23;11.75;;;;;;;16.16;100.00;96372.94;5033684;28;20064;-73
2021/09/26 00:06:19;;;;;;;21.10;12.15;;;;;;;16.14;100.00;96369.72;5034225;28;20053;-76
2021/09/26 00:08:44;;;;;;;18.65;11.35;;;;;;;16.06;100.00;96373.72;5034941;28;20549;-73
2021/09/26 00:11:10;;;;;;;18.45;11.57;;;;;;;16.09;100.00;96373.22;5035589;28;20116;-74
2021/09/26 00:13:37;;;;;;;19.20;11.23;;;;;;;16.00;100.00;96364.97;5034371;28;20037;-74
2021/09/26 00:16:05;;;;;;;19.63;12.18;;;;;;;16.06;100.00;96363.13;5034463;28;20413;-73
2021/09/26 00:18:30;;;;;;;17.15;11.13;;;;;;;16.10;100.00;96368.69;5037700;28;20144;-73
2021/09/26 00:20:56;;;;;;;17.67;11.30;;;;;;;16.07;100.00;96369.22;5037033;28;20575;-75
2021/09/26 00:23:25;;;;;;;16.75;10.63;;;;;;;16.07;100.00;96363.91;5034341;28;20045;-74
2021/09/26 00:25:52;;;;;;;18.52;11.50;;;;;;;16.07;100.00;96362.03;5034382;28;20397;-73
2021/09/26 00:28:18;;;;;;;17.90;10.95;;;;;;;16.01;100.00;96366.56;5034443;28;20129;-74
2021/09/26 00:30:44;;;;;;;17.20;10.63;;;;;;;15.99;100.00;96373.22;5016270;28;20505;-74
2021/09/26 00:33:09;;;;;;;18.40;10.77;;;;;;;15.92;100.00;96368.16;5016511;28;20068;-73
2021/09/26 00:35:35;;;;;;;17.35;11.25;;;;;;;15.96;100.00;96355.94;5034316;28;20041;-73
2021/09/26 00:38:01;;;;;;;20.38;11.10;;;;;;;15.94;100.00;96344.81;5016156;28;20045;-72
2021/09/26 00:40:28;;;;;;;18.88;11.18;;;;;;;15.97;100.00;96348.78;5040451;28;20430;-73
2021/09/26 00:42:56;;;;;;;18.48;11.98;;;;;;;15.99;100.00;96354.63;5040929;28;20072;-73
2021/09/26 00:45:24;;;;;;;19.88;10.82;;;;;;;16.03;100.00;96358.31;5039028;28;20072;-74
2021/09/26 00:47:50;;;;;;;17.27;10.27;;;;;;;16.06;100.00;96357.00;5018329;28;20448;-73
2021/09/26 00:50:17;;;;;;;18.50;10.90;;;;;;;16.07;100.00;96355.94;5034586;28;20056;-73
2021/09/26 00:52:45;;;;;;;16.20;10.60;;;;;;;16.07;100.00;96348.78;5016428;28;20049;-74
2021/09/26 00:55:12;;;;;;;16.33;10.63;;;;;;;16.06;100.00;96346.41;5034616;28;20029;-73
2021/09/26 00:57:40;;;;;;;17.92;11.32;;;;;;;16.05;100.00;96340.31;5033906;28;20053;-73
2021/09/26 01:00:07;;;;;;;17.52;11.15;;;;;;;16.00;100.00;96337.66;5033889;28;20033;-72
2021/09/26 01:02:32;;;;;;;17.92;11.23;;;;;;;16.15;100.00;96340.28;5033000;28;20061;-73
2021/09/26 01:04:58;;;;;;;21.20;11.77;;;;;;;16.11;100.00;96338.44;5033797;28;20493;-73
2021/09/26 01:07:31;;;;;;;16.40;10.50;;;;;;;16.19;100.00;96351.16;5033583;28;20109;-73
2021/09/26 01:10:03;;;;;;;19.25;11.23;;;;;;;16.15;100.00;96350.91;5015755;28;20045;-74
2021/09/26 01:12:36;;;;;;;18.38;11.68;;;;;;;16.22;100.00;96356.72;5033526;28;20038;-73
2021/09/26 01:15:07;;;;;;;20.00;11.63;;;;;;;16.17;100.00;96367.34;5033749;28;20053;-74
2021/09/26 01:17:40;;;;;;;17.35;11.18;;;;;;;16.14;100.00;96359.13;5033695;28;20409;-74
2021/09/26 01:20:33;;;;;;;18.02;11.23;;;;;;;16.18;100.00;96365.50;5034081;28;20041;-74
2021/09/26 01:23:21;;;;;;;17.05;11.20;;;;;;;16.14;100.00;96359.91;5015753;28;20041;-74
2021/09/26 01:26:17;;;;;;;19.05;11.35;;;;;;;16.13;100.00;96355.66;5032882;28;20067;-74
2021/09/26 01:28:57;;;;;;;20.02;11.85;;;;;;;16.07;100.00;96353.28;5038218;28;20045;-72
2021/09/26 01:31:31;;;;;;;19.17;11.70;;;;;;;16.06;100.00;96351.72;5037864;28;20037;-72
2021/09/26 01:34:02;;;;;;;19.35;11.82;;;;;;;16.00;100.00;96351.72;5037917;28;20306;-72
2021/09/26 01:36:35;;;;;;;19.73;11.77;;;;;;;16.02;100.00;96354.09;5037423;28;20056;-73
2021/09/26 01:39:04;;;;;;;20.98;12.63;;;;;;;16.05;100.00;96350.13;5037819;28;20440;-73
2021/09/26 01:41:33;;;;;;;21.27;12.73;;;;;;;15.99;100.00;96347.47;5037135;28;20116;-72
2021/09/26 01:44:03;;;;;;;19.20;12.13;;;;;;;15.95;100.00;96345.63;5035920;28;20079;-72
2021/09/26 01:46:35;;;;;;;19.05;12.23;;;;;;;15.99;100.00;96347.47;5037079;28;20429;-73
2021/09/26 01:49:05;;;;;;;19.80;12.43;;;;;;;15.97;100.00;96354.88;5037606;28;20124;-73
2021/09/26 01:51:35;;;;;;;18.90;12.07;;;;;;;16.01;100.00;96355.94;5019601;28;20041;-74
2021/09/26 01:54:02;;;;;;;19.67;12.15;;;;;;;15.93;100.00;96356.50;5037809;28;20071;-73
2021/09/26 01:56:29;;;;;;;21.23;12.27;;;;;;;15.90;100.00;96356.22;5037219;28;20568;-73
2021/09/26 01:58:56;;;;;;;20.60;12.02;;;;;;;15.80;100.00;96349.06;5037166;28;20162;-74
2021/09/26 02:01:21;;;;;;;21.70;13.52;;;;;;;15.83;100.00;96348.53;5037107;28;20076;-74
2021/09/26 02:03:50;;;;;;;21.88;13.77;;;;;;;15.86;100.00;96347.19;5037119;28;20045;-74
2021/09/26 02:06:16;;;;;;;19.23;13.60;;;;;;;15.81;100.00;96345.34;5036813;28;20152;-74
2021/09/26 02:08:43;;;;;;;21.63;13.95;;;;;;;15.80;100.00;96343.75;5035271;28;20076;-76
2021/09/26 02:11:10;;;;;;;20.65;13.00;;;;;;;15.84;100.00;96338.72;5036981;28;20042;-73
2021/09/26 02:13:38;;;;;;;21.85;13.20;;;;;;;15.95;100.00;96345.63;5019469;28;20289;-73
2021/09/26 02:16:05;;;;;;;22.10;14.02;;;;;;;15.98;100.00;96332.63;5036958;28;20454;-74
2021/09/26 02:18:34;;;;;;;21.07;13.30;;;;;;;16.04;100.00;96332.63;5037246;28;20042;-72
2021/09/26 02:21:04;;;;;;;21.42;13.27;;;;;;;16.11;100.00;96335.78;5036596;28;20601;-74
2021/09/26 02:23:30;;;;;;;19.80;12.50;;;;;;;16.14;100.00;96335.22;5037092;28;20048;-73
2021/09/26 02:25:56;;;;;;;22.23;13.43;;;;;;;16.13;100.00;96337.09;5019449;28;20075;-74
2021/09/26 02:28:22;;;;;;;20.25;12.82;;;;;;;16.20;100.00;96334.19;5036699;28;20128;-74
2021/09/26 02:30:50;;;;;;;19.77;13.02;;;;;;;16.17;100.00;96337.38;5036586;28;20030;-72
2021/09/26 02:33:16;;;;;;;20.63;13.32;;;;;;;16.27;99.93;96337.34;5018123;28;20049;-74
2021/09/26 02:35:42;;;;;;;20.25;12.77;;;;;;;16.38;99.16;96341.56;5036454;28;20413;-74
2021/09/26 02:38:09;;;;;;;20.77;12.75;;;;;;;16.39;98.54;96335.19;5036420;28;20038;-73
2021/09/26 02:40:35;;;;;;;19.88;12.27;;;;;;;16.46;98.27;96330.38;5036446;28;20043;-74
2021/09/26 02:43:19;;;;;;;18.67;11.77;;;;;;;16.37;98.54;96329.38;5036613;28;20045;-75
2021/09/26 02:45:50;;;;;;;19.38;12.05;;;;;;;16.39;98.27;96335.19;5018667;28;20076;-74
2021/09/26 02:48:18;;;;;;;19.65;12.55;;;;;;;16.37;98.60;96332.03;5036237;28;20037;-74
2021/09/26 02:50:46;;;;;;;20.30;12.07;;;;;;;16.32;98.17;96339.22;5036319;28;20519;-74
2021/09/26 02:53:13;;;;;;;;;;;;;;;16.30;98.76;96326.19;5036971;28;20038;-74
2021/09/26 02:55:41;;;;;;;20.17;12.90;;;;;;;16.24;99.32;96316.63;5036000;28;19921;-74
2021/09/26 02:58:09;;;;;;;19.40;11.82;;;;;;;16.47;97.82;96320.59;5036120;28;20052;-73
2021/09/26 03:00:37;;;;;;;21.55;12.80;;;;;;;16.40;98.47;96315.53;5035653;28;20167;-75
2021/09/26 03:03:10;;;;;;;19.83;12.32;;;;;;;16.39;98.18;96308.66;5017983;28;20049;-73
2021/09/26 03:05:36;;;;;;;18.85;11.93;;;;;;;16.28;98.23;96296.47;5035369;28;20413;-72
2021/09/26 03:08:02;;;;;;;19.00;12.07;;;;;;;16.29;98.38;96298.06;5018136;28;20045;-73
2021/09/26 03:10:29;;;;;;;19.27;12.25;;;;;;;16.33;97.84;96293.81;5036383;28;20041;-74
2021/09/26 03:12:55;;;;;;;19.45;12.18;;;;;;;16.38;98.15;96296.44;5035666;28;20071;-73
2021/09/26 03:15:21;;;;;;;19.98;12.32;;;;;;;16.26;98.31;96309.22;5033944;28;20125;-73
2021/09/26 03:17:47;;;;;;;21.30;13.45;;;;;;;16.17;99.00;96301.00;5035372;28;20025;-74
2021/09/26 03:20:13;;;;;;;19.50;12.02;;;;;;;16.29;98.51;96308.66;5037928;28;20116;-74
2021/09/26 03:22:38;;;;;;;18.65;12.68;;;;;;;16.18;98.85;96309.75;5019600;28;20037;-72
2021/09/26 03:25:05;;;;;;;22.75;13.88;;;;;;;16.11;99.45;96306.59;5035594;28;20443;-74
2021/09/26 03:27:31;;;;;;;22.35;12.80;;;;;;;16.06;99.87;96317.22;5034898;28;20049;-74
2021/09/26 03:29:57;;;;;;;21.70;13.27;;;;;;;16.13;99.67;96296.50;5037137;28;20047;-74
2021/09/26 03:32:23;;;;;;;20.55;13.60;;;;;;;16.06;99.75;96286.16;5037839;28;20124;-74
2021/09/26 03:34:48;;;;;;;20.23;13.23;;;;;;;16.02;100.00;96288.56;5035998;28;20076;-73
2021/09/26 03:37:14;;;;;;;20.45;13.57;;;;;;;16.00;100.00;96269.47;5035099;28;20049;-73
2021/09/26 03:39:40;;;;;;;21.77;13.65;;;;;;;16.00;100.00;96266.81;5035493;28;20037;-76
2021/09/26 03:42:06;;;;;;;22.73;14.05;;;;;;;15.94;100.00;96267.88;5033452;28;20148;-73
2021/09/26 03:44:33;;;;;;;20.70;13.38;;;;;;;15.95;100.00;96288.03;5033971;28;20073;-74
2021/09/26 03:46:59;;;;;;;21.73;13.50;;;;;;;16.04;100.00;96279.56;5033635;28;20053;-72
2021/09/26 03:49:25;;;;;;;23.02;12.93;;;;;;;15.97;100.00;96285.91;5051499;28;20094;-73
2021/09/26 03:51:51;;;;;;;21.13;13.60;;;;;;;15.98;100.00;96273.44;5036933;28;20046;-73
2021/09/26 03:54:17;;;;;;;19.52;12.98;;;;;;;15.95;100.00;96266.81;5035690;28;20513;-73
2021/09/26 03:56:43;;;;;;;21.13;13.10;;;;;;;16.00;100.00;96289.91;5035663;28;20486;-73
2021/09/26 03:59:12;;;;;;;22.20;13.65;;;;;;;15.91;100.00;96263.09;5035704;28;20128;-74
2021/09/26 04:01:39;;;;;;;19.98;13.07;;;;;;;16.03;100.00;96265.47;5017767;28;20059;-74
2021/09/26 04:04:05;;;;;;;20.35;12.98;;;;;;;15.98;100.00;96252.22;5016781;28;20052;-73
2021/09/26 04:06:33;;;;;;;22.58;14.38;;;;;;;15.92;100.00;96251.41;5034237;28;20045;-74
2021/09/26 04:08:58;;;;;;;;;;;;;;;15.87;100.00;96243.47;5035559;28;20088;-74
2021/09/26 04:11:24;;;;;;;21.35;13.90;;;;;;;15.83;100.00;96226.53;5034770;28;19921;-74
2021/09/26 04:13:49;;;;;;;24.48;14.23;;;;;;;15.79;100.00;96244.03;5034935;28;20124;-74
2021/09/26 04:16:15;;;;;;;23.75;14.55;;;;;;;15.79;100.00;96262.59;5033889;28;20048;-74
2021/09/26 04:18:42;;;;;;;21.25;13.82;;;;;;;15.87;100.00;96274.50;5034672;28;20146;-74
2021/09/26 04:21:08;;;;;;;23.13;14.73;;;;;;;15.85;100.00;96274.78;5033309;28;20072;-74
2021/09/26 04:23:34;;;;;;;22.92;14.35;;;;;;;15.83;100.00;96279.56;5034629;28;20077;-72
2021/09/26 04:25:59;;;;;;;25.35;15.18;;;;;;;15.73;100.00;96271.63;5016264;28;20071;-73
2021/09/26 04:28:25;;;;;;;23.08;14.90;;;;;;;15.80;100.00;96269.47;5017070;28;20037;-74
2021/09/26 04:30:51;;;;;;;23.45;14.70;;;;;;;15.72;100.00;96280.66;5032918;28;20071;-74
2021/09/26 04:33:16;;;;;;;24.70;15.35;;;;;;;15.67;100.00;96275.34;5034133;28;20099;-73
2021/09/26 04:35:43;;;;;;;22.58;15.05;;;;;;;15.83;100.00;96278.78;5042057;28;20135;-73
2021/09/26 04:38:09;;;;;;;23.30;15.23;;;;;;;15.72;100.00;96270.03;5040192;28;20042;-73
2021/09/26 04:40:39;;;;;;;27.27;15.63;;;;;;;15.61;100.00;96271.06;5040112;28;20043;-74
2021/09/26 04:43:05;;;;;;;21.50;14.40;;;;;;;15.57;100.00;96267.34;5035525;28;20043;-74
2021/09/26 04:45:33;;;;;;;24.17;14.57;;;;;;;15.57;100.00;96272.66;5017087;28;20128;-75
2021/09/26 04:47:59;;;;;;;26.20;15.55;;;;;;;15.56;100.00;96273.72;5016099;28;20050;-74
2021/09/26 04:50:24;;;;;;;27.60;16.35;;;;;;;15.57;100.00;96276.09;5034304;28;20034;-74
2021/09/26 04:52:51;;;;;;;26.77;15.55;;;;;;;15.54;100.00;96270.53;5016048;28;20075;-74
2021/09/26 04:55:17;;;;;;;27.00;17.33;;;;;;;15.51;100.00;96266.56;5016544;28;20053;-74
2021/09/26 04:57:43;;;;;;;29.70;16.20;;;;;;;15.50;100.00;96264.97;5034361;28;20041;-74
2021/09/26 05:00:09;;;;;;;26.77;16.58;;;;;;;15.48;100.00;96270.53;5015824;28;20043;-73
2021/09/26 05:02:35;;;;;;;28.02;16.25;;;;;;;15.52;100.00;96267.34;5034020;28;20413;-74
2021/09/26 05:05:01;;;;;;;28.45;16.30;;;;;;;15.49;100.00;96274.75;5015862;28;20076;-73
2021/09/26 05:07:27;;;;;;;26.58;15.95;;;;;;;15.51;100.00;96276.38;5033000;28;20068;-73
2021/09/26 05:09:54;;;;;;;26.15;15.90;;;;;;;15.49;100.00;96269.47;5034235;28;20052;-77
2021/09/26 05:12:19;;;;;;;31.95;17.48;;;;;;;15.51;100.00;96265.78;5032950;28;20103;-77
2021/09/26 05:14:48;;;;;;;25.40;15.73;;;;;;;15.46;100.00;96277.97;5015989;28;20045;-77
2021/09/26 05:17:15;;;;;;;29.20;16.35;;;;;;;15.41;100.00;96277.16;5032921;28;20402;-76
2021/09/26 05:19:41;;;;;;;25.80;15.85;;;;;;;15.37;100.00;96281.41;5033910;28;20037;-75
2021/09/26 05:22:07;;;;;;;25.48;15.65;;;;;;;15.33;100.00;96281.13;5033881;28;20043;-76
2021/09/26 05:24:32;;;;;;;28.80;16.50;;;;;;;15.32;100.00;96289.34;5033354;28;20061;-76
2021/09/26 05:26:59;;;;;;;24.60;15.05;;;;;;;15.36;100.00;96285.91;5032398;28;20559;-76
2021/09/26 05:29:25;;;;;;;27.63;16.38;;;;;;;15.29;100.00;96290.69;5032420;28;20045;-76
2021/09/26 05:31:51;;;;;;;24.25;15.80;;;;;;;15.30;100.00;96308.16;5033519;28;20052;-75
2021/09/26 05:34:18;;;;;;;27.55;15.60;;;;;;;15.35;100.00;96305.53;5033906;28;20108;-76
2021/09/26 05:36:44;;;;;;;25.42;15.73;;;;;;;15.30;100.00;96292.25;5032511;28;20069;-76
2021/09/26 05:39:10;;;;;;;24.52;15.70;;;;;;;15.37;100.00;96295.44;5034216;28;20049;-75
2021/09/26 05:41:36;;;;;;;24.85;16.20;;;;;;;15.29;100.00;96303.94;5033835;28;20057;-76
2021/09/26 05:44:03;;;;;;;29.65;15.90;;;;;;;15.26;100.00;96301.00;5033366;28;20049;-76
2021/09/26 05:46:31;;;;;;;31.63;17.58;;;;;;;15.17;100.00;96290.09;5015768;28;20077;-76
2021/09/26 05:48:57;;;;;;;30.20;15.95;;;;;;;15.16;100.00;96291.97;5015460;28;20117;-76
2021/09/26 05:51:22;;;;;;;24.98;15.65;;;;;;;15.13;100.00;96286.41;5034287;28;20091;-76
2021/09/26 05:53:48;;;;;;;27.15;16.30;;;;;;;15.10;100.00;96284.28;5017971;28;20488;-76
2021/09/26 05:56:15;;;;;;;28.15;16.38;;;;;;;15.08;100.00;96278.44;5035648;28;20033;-76
2021/09/26 05:58:40;;;;;;;28.70;16.52;;;;;;;15.08;100.00;96278.44;5015870;28;20045;-77
2021/09/26 06:01:07;;;;;;;28.77;16.95;;;;;;;15.10;100.00;96289.56;5033880;28;20052;-76
2021/09/26 06:03:33;;;;;;;31.33;17.73;;;;;;;15.14;100.00;96282.69;5033316;28;20045;-75
2021/09/26 06:05:58;;;;;;;31.23;18.33;;;;;;;15.20;100.00;96281.66;5033791;28;20053;-76
2021/09/26 06:08:27;;;;;;;30.38;18.65;;;;;;;15.19;100.00;96285.34;5032984;28;20049;-76
2021/09/26 06:10:53;;;;;;;28.85;17.73;;;;;;;15.18;100.00;96289.06;5032373;28;20033;-76
2021/09/26 06:13:18;;;;;;;30.02;17.92;;;;;;;15.22;100.00;96280.31;5037181;28;20042;-76
2021/09/26 06:15:44;;;;;;;30.77;19.05;;;;;;;15.31;100.00;96272.66;5037380;28;20057;-75
2021/09/26 06:18:13;;;;;;;29.52;17.60;;;;;;;15.33;100.00;96272.38;5037424;28;20101;-76
2021/09/26 06:20:39;;;;;;;30.15;17.42;;;;;;;15.33;100.00;96267.06;5037362;28;20072;-76
2021/09/26 06:23:04;;;;;;;34.83;18.27;;;;;;;15.39;100.00;96264.19;5037169;28;20105;-76
2021/09/26 06:25:34;;;;;;;28.02;17.80;;;;;;;15.43;100.00;96270.53;5037000;28;20460;-76
2021/09/26 06:27:59;;;;;;;30.77;18.42;;;;;;;15.43;100.00;96270.53;5037411;28;20044;-76
2021/09/26 06:30:25;;;;;;;26.15;16.48;;;;;;;15.48;100.00;96270.53;5036260;28;20130;-76
2021/09/26 06:32:50;;;;;;;30.63;17.60;;;;;;;15.57;100.00;96272.66;5037154;28;20069;-76
2021/09/26 06:35:17;;;;;;;29.48;18.13;;;;;;;15.62;100.00;96278.75;5036726;28;20046;-76
2021/09/26 06:37:43;;;;;;;31.43;17.27;;;;;;;15.67;100.00;96276.13;5037179;28;20121;-75
2021/09/26 06:40:10;;;;;;;27.20;16.95;;;;;;;15.75;100.00;96277.44;5036566;28;20073;-76
2021/09/26 06:42:36;;;;;;;26.33;17.33;;;;;;;15.84;100.00;96275.84;5037252;28;20114;-76
2021/09/26 06:45:03;;;;;;;25.40;16.58;;;;;;;15.92;100.00;96277.94;5019647;28;20510;-77
2021/09/26 06:47:28;;;;;;;25.15;15.52;;;;;;;16.00;100.00;96279.28;5036431;28;20128;-76
2021/09/26 06:49:56;;;;;;;23.40;15.55;;;;;;;16.12;100.00;96281.66;5034915;28;20524;-76
2021/09/26 06:52:26;;;;;;;25.10;16.00;;;;;;;16.17;100.00;96273.66;5037098;28;20036;-76
2021/09/26 06:54:51;;;;;;;22.52;14.02;;;;;;;16.24;100.00;96280.28;5036881;28;20312;-75
2021/09/26 06:57:17;;;;;;;22.33;14.63;;;;;;;16.35;100.00;96290.88;5018913;28;20509;-76
2021/09/26 06:59:42;;;;;;;25.20;14.15;;;;;;;16.43;100.00;96277.84;5035745;28;20049;-76
2021/09/26 07:02:08;;;;;;;21.92;14.25;;;;;;;16.48;100.00;96279.69;5036975;28;20044;-76
2021/09/26 07:04:37;;;;;;;21.98;14.65;;;;;;;16.54;99.86;96282.06;5019042;28;20025;-76
2021/09/26 07:07:03;;;;;;;23.63;15.23;;;;;;;16.60;99.23;96282.81;5037025;28;20052;-76
2021/09/26 07:09:30;;;;;;;22.45;14.50;;;;;;;16.69;98.17;96288.38;5040962;28;20080;-76
2021/09/26 07:11:55;;;;;;;24.83;14.90;;;;;;;16.79;98.12;96283.06;5036740;28;20033;-76
2021/09/26 07:14:21;;;;;;;25.02;14.75;;;;;;;16.85;97.04;96289.13;5036724;28;20041;-75
2021/09/26 07:16:47;;;;;;;25.27;15.18;;;;;;;16.92;97.08;96295.72;5042706;28;20518;-76
2021/09/26 07:19:13;;;;;;;22.35;13.93;;;;;;;16.97;97.26;96298.34;5037116;28;20132;-76
2021/09/26 07:21:39;;;;;;;21.83;14.57;;;;;;;17.09;97.11;96291.91;5036102;28;20042;-76
2021/09/26 07:24:07;;;;;;;21.27;14.02;;;;;;;17.15;96.47;96288.16;5035013;28;20394;-76
2021/09/26 07:26:34;;;;;;;21.60;13.27;;;;;;;17.19;94.86;96289.19;5035456;28;20571;-77
2021/09/26 07:29:02;;;;;;;20.03;12.43;;;;;;;17.21;92.76;96281.72;5036882;28;20088;-76
2021/09/26 07:31:27;;;;;;;18.75;11.85;;;;;;;17.34;92.85;96286.44;5019232;28;20038;-76
2021/09/26 07:33:53;;;;;;;21.13;13.20;;;;;;;17.41;92.96;96297.56;5035477;28;20107;-76
2021/09/26 07:36:19;;;;;;;21.05;12.40;;;;;;;17.50;93.09;96290.59;5036478;28;20042;-76
2021/09/26 07:38:47;;;;;;;19.67;11.73;;;;;;;17.59;92.11;96288.09;5017900;28;20422;-77
2021/09/26 07:41:13;;;;;;;20.02;11.82;;;;;;;17.72;91.38;96286.69;5034815;28;20064;-76
2021/09/26 07:43:42;;;;;;;18.50;11.55;;;;;;;17.81;89.99;96296.50;5035504;28;20110;-77
2021/09/26 07:46:10;;;;;;;21.88;12.32;;;;;;;17.70;90.00;96302.91;5035195;28;20073;-76
2021/09/26 07:48:36;;;;;;;19.95;11.23;;;;;;;17.69;90.07;96308.53;5035386;28;20105;-76
2021/09/26 07:51:01;;;;;;;19.80;11.57;;;;;;;17.76;91.05;96309.03;5035274;28;20144;-76
2021/09/26 07:53:27;;;;;;;17.92;10.98;;;;;;;17.88;90.65;96312.13;5034671;28;20045;-77
2021/09/26 07:55:55;;;;;;;19.38;11.23;;;;;;;17.94;90.21;96308.34;5034896;28;20497;-76
2021/09/26 07:58:25;;;;;;;19.10;12.07;;;;;;;17.96;90.62;96314.19;5017078;28;20045;-76
2021/09/26 08:00:55;;;;;;;19.42;11.48;;;;;;;18.04;90.20;96318.91;5035703;28;20085;-76
2021/09/26 08:03:20;;;;;;;18.15;10.85;;;;;;;18.10;88.92;96312.47;5035864;28;20095;-76
2021/09/26 08:05:46;;;;;;;18.30;11.85;;;;;;;18.22;89.56;96316.59;5034825;28;20053;-76
2021/09/26 08:08:12;;;;;;;22.50;12.02;;;;;;;18.35;87.88;96319.41;5035885;28;20105;-76
2021/09/26 08:10:38;;;;;;;16.95;11.23;;;;;;;18.51;87.05;96324.56;5035173;28;20227;-76
2021/09/26 08:13:03;;;;;;;18.33;10.45;;;;;;;18.60;86.42;96333.50;5035234;28;20037;-76
2021/09/26 08:15:30;;;;;;;20.00;10.82;;;;;;;18.78;86.29;96354.13;5034678;28;20104;-77
2021/09/26 08:17:57;;;;;;;18.63;10.15;;;;;;;18.88;85.50;96348.66;5035108;28;20470;-77
2021/09/26 08:20:24;;;;;;;17.90;9.73;;;;;;;18.92;84.90;96364.91;5035121;28;20404;-76
2021/09/26 08:22:52;;;;;;;17.98;10.38;;;;;;;19.09;84.51;96367.88;5034823;28;20056;-77
2021/09/26 08:25:18;;;;;;;16.17;9.80;;;;;;;19.25;83.28;96365.81;5034829;28;20041;-77
2021/09/26 08:27:44;;;;;;;16.83;9.27;;;;;;;19.25;83.28;96370.34;5037011;28;20041;-76
2021/09/26 08:30:10;;;;;;;15.55;9.77;;;;;;;19.32;82.38;96368.16;5025774;28;20095;-77
2021/09/26 08:32:39;;;;;;;16.90;11.02;;;;;;;19.55;82.70;96361.16;5036155;28;20533;-77
2021/09/26 08:35:07;;;;;;;16.15;10.23;;;;;;;19.70;82.24;96360.16;5037081;28;20041;-76
2021/09/26 08:37:33;;;;;;;18.42;10.48;;;;;;;19.75;81.76;96362.72;5036781;28;20052;-76
2021/09/26 08:39:59;;;;;;;18.02;9.70;;;;;;;19.88;80.78;96362.00;5023177;28;20493;-76
2021/09/26 08:42:25;;;;;;;15.85;9.75;;;;;;;20.07;80.17;96362.78;5036484;28;20056;-76
2021/09/26 08:44:51;;;;;;;16.17;9.25;;;;;;;20.21;80.02;96360.13;5036180;28;20045;-76
2021/09/26 08:47:17;;;;;;;16.42;9.73;;;;;;;20.37;78.96;96379.38;5034676;28;20222;-77
2021/09/26 08:49:43;;;;;;;15.23;9.30;;;;;;;20.59;78.85;96398.22;5034728;28;20470;-77
2021/09/26 08:52:11;;;;;;;15.93;8.82;;;;;;;20.62;79.00;96402.22;5033742;28;20092;-77
2021/09/26 08:54:38;;;;;;;14.52;9.00;;;;;;;20.67;78.05;96407.47;5034495;28;20038;-77
2021/09/26 08:57:04;;;;;;;;;;;;;;;20.78;77.33;96421.44;5017144;28;20045;-77
2021/09/26 08:59:31;;;;;;;14.43;9.18;;;;;;;20.63;77.66;96419.81;5016525;28;19927;-76
2021/09/26 09:01:59;;;;;;;15.48;8.45;;;;;;;20.64;77.09;96426.75;5034814;28;20084;-76
2021/09/26 09:04:32;;;;;;;;;;;;;;;20.71;76.50;96425.25;5037177;28;20052;-75
2021/09/26 09:07:02;;;;;;;13.95;7.47;;;;;;;21.19;75.06;96427.56;5032732;28;20027;-78
2021/09/26 09:09:29;;;;;;;15.95;8.15;;;;;;;21.13;74.42;96428.75;5051449;28;20025;-77
2021/09/26 09:12:01;;;;;;;14.27;8.60;;;;;;;20.94;74.69;96428.09;5051341;28;20080;-78
2021/09/26 09:14:29;;;;;;;18.38;8.75;;;;;;;21.30;74.37;96432.75;5050895;28;20025;-77
2021/09/26 09:16:56;;;;;;;16.30;8.80;;;;;;;21.35;73.84;96430.75;5052414;28;20037;-78
2021/09/26 09:19:23;;;;;;;14.98;8.30;;;;;;;21.39;74.23;96421.06;5031402;28;20133;-77
2021/09/26 09:22:06;;;;;;;14.00;7.53;;;;;;;21.37;73.94;96417.91;5034269;28;20521;-77
2021/09/26 09:24:40;;;;;;;15.02;8.23;;;;;;;21.56;74.13;96420.44;5016715;28;20113;-76
2021/09/26 09:27:06;;;;;;;14.63;7.93;;;;;;;21.68;73.16;96428.72;5037687;28;20041;-76
2021/09/26 09:29:35;;;;;;;13.68;8.18;;;;;;;21.73;73.79;96425.94;5017333;28;20045;-76
2021/09/26 09:32:01;;;;;;;14.18;8.30;;;;;;;21.74;73.10;96424.88;5033482;28;20045;-78
2021/09/26 09:34:28;;;;;;;17.33;9.02;;;;;;;21.78;72.89;96424.25;5033961;28;20045;-77
2021/09/26 09:37:09;;;;;;;14.38;7.93;;;;;;;21.80;72.73;96424.75;5034041;28;20046;-77
2021/09/26 09:39:35;;;;;;;15.43;8.00;;;;;;;21.70;72.97;96418.53;5034017;28;20504;-77
2021/09/26 09:42:15;;;;;;;14.73;7.90;;;;;;;21.88;72.52;96426.69;5034763;28;20105;-77
2021/09/26 09:44:41;;;;;;;13.27;8.15;;;;;;;22.06;72.58;96431.09;5034044;28;20543;-77
2021/09/26 09:47:07;;;;;;;12.70;7.65;;;;;;;22.41;70.42;96426.00;5017820;28;20048;-76
2021/09/26 09:49:35;;;;;;;13.05;7.60;;;;;;;22.90;68.65;96416.19;5038277;28;20041;-77
2021/09/26 09:52:05;;;;;;;12.60;6.55;;;;;;;22.84;67.11;96430.81;5038077;28;20033;-76
2021/09/26 09:54:36;;;;;;;16.25;6.50;;;;;;;22.73;65.94;96431.09;5019943;28;20049;-77
2021/09/26 09:57:15;;;;;;;11.52;5.53;;;;;;;22.89;64.63;96425.34;5020372;28;20095;-77
2021/09/26 09:59:44;;;;;;;14.98;6.18;;;;;;;22.76;63.66;96429.66;5038340;28;20042;-77
2021/09/26 10:02:10;;;;;;;13.60;6.32;;;;;;;22.56;61.23;96431.00;5038043;28;20038;-77
2021/09/26 10:04:37;;;;;;;11.13;6.20;;;;;;;22.49;61.02;96430.63;5020095;28;20056;-78
2021/09/26 10:07:17;;;;;;;12.30;6.40;;;;;;;22.50;60.55;96432.22;5037344;28;20037;-77
2021/09/26 10:09:43;;;;;;;14.02;5.93;;;;;;;22.63;58.72;96425.97;5037054;28;20286;-76
2021/09/26 10:12:19;;;;;;;11.82;5.90;;;;;;;22.76;55.97;96426.97;5038070;28;20145;-77
2021/09/26 10:14:45;;;;;;;11.63;6.05;;;;;;;22.72;55.06;96432.19;5037624;28;20596;-78
2021/09/26 10:17:11;;;;;;;11.02;6.22;;;;;;;22.51;54.67;96434.59;5038222;28;20069;-76
2021/09/26 10:19:37;;;;;;;13.35;7.07;;;;;;;22.85;53.87;96433.19;5037747;28;20527;-75
2021/09/26 10:22:04;;;;;;;13.27;7.45;;;;;;;23.37;52.98;96438.00;5020247;28;20099;-76
2021/09/26 10:24:33;;;;;;;11.20;6.72;;;;;;;23.39;52.94;96435.78;5020064;28;20052;-76
2021/09/26 10:27:02;;;;;;;11.55;7.00;;;;;;;23.16;54.32;96443.13;5037781;28;20049;-77
2021/09/26 10:29:32;;;;;;;12.48;7.25;;;;;;;22.99;55.13;96438.50;5038860;28;20056;-76
2021/09/26 10:32:00;;;;;;;11.60;7.15;;;;;;;22.71;55.25;96433.28;5037837;28;20029;-76
2021/09/26 10:34:28;;;;;;;12.50;7.75;;;;;;;22.62;55.62;96437.81;5020694;28;20049;-76
2021/09/26 10:36:57;;;;;;;12.02;7.80;;;;;;;22.61;55.87;96443.50;5039179;28;20045;-76
2021/09/26 10:39:25;;;;;;;11.35;7.13;;;;;;;22.50;55.34;96440.28;5020394;28;20052;-78
2021/09/26 10:42:08;;;;;;;14.20;9.40;;;;;;;22.76;55.22;96438.53;5037459;28;20097;-77
2021/09/26 10:44:40;;;;;;;12.95;8.27;;;;;;;22.48;56.64;96450.47;5037486;28;20386;-76
2021/09/26 10:47:18;;;;;;;13.82;7.80;;;;;;;22.29;56.23;96452.59;5023869;28;20046;-79
2021/09/26 10:49:48;;;;;;;12.82;7.63;;;;;;;22.13;56.34;96455.63;5043347;28;20092;-78
2021/09/26 10:52:25;;;;;;;11.50;6.97;;;;;;;22.36;55.06;96455.63;5040910;28;20060;-76
2021/09/26 10:54:53;;;;;;;;;;;;;;;22.48;54.40;96455.84;5021622;28;20569;-76
2021/09/26 10:57:30;;;;;;;12.40;6.00;;;;;;;22.67;53.69;96444.94;5038221;28;19921;-76
2021/09/26 11:00:00;;;;;;;10.18;5.50;;;;;;;22.52;55.38;96446.09;5037834;28;20049;-76
2021/09/26 11:02:42;;;;;;;10.52;5.35;;;;;;;22.33;55.72;96445.50;5037139;28;20064;-76
2021/09/26 11:05:39;;;;;;;10.43;4.45;;;;;;;22.21;56.97;96428.09;5036397;28;20049;-75
2021/09/26 11:08:08;;;;;;;8.25;4.15;;;;;;;22.74;54.31;96427.28;5062327;22;20045;-78
2021/09/26 11:10:46;;;;;;;9.68;5.10;;;;;;;23.15;53.32;96426.25;5094046;28;20055;-75
2021/09/26 11:13:16;;;;;;;10.07;4.43;;;;;;;23.02;53.25;96425.22;5096674;28;20326;-75
2021/09/26 11:16:17;;;;;;;10.50;5.03;;;;;;;23.10;53.93;96412.97;5103053;28;20035;-76
2021/09/26 11:18:54;;;;;;;8.52;4.38;;;;;;;22.98;53.25;96405.50;5012396;28;20054;-75
2021/09/26 11:21:38;;;;;;;;;;;;;;;23.21;53.13;96400.84;5083283;28;20058;-76